Time;durP1;ratioP1;P1;durP2;ratioP2;P2;SDS_P1;SDS_P2;PMS_P1;PMS_P2;Temp;Humidity;BMP_temperature;BMP_pressure;BME280_temperature;BME280_humidity;BME280_pressure;Samples;Min_cycle;Max_cycle;Signal;HPM_P1;HPM_P2
2022/03/16 00:01:04;;;;;;;53.80;30.90;;;5.00;99.90;;;;;;5009304;28;20067;-39
2022/03/16 00:03:31;;;;;;;50.40;30.15;;;5.00;99.90;;;;;;5013476;28;20160;-39
2022/03/16 00:05:57;;;;;;;55.00;31.70;;;5.00;99.90;;;;;;5012122;28;20500;-39
2022/03/16 00:08:28;;;;;;;51.75;30.52;;;5.00;99.90;;;;;;5012508;28;20057;-39
2022/03/16 00:10:55;;;;;;;54.20;31.50;;;5.00;99.90;;;;;;5026778;28;20042;-39
2022/03/16 00:13:22;;;;;;;46.05;28.77;;;4.90;99.90;;;;;;5014090;28;20307;-39
2022/03/16 00:15:50;;;;;;;52.85;29.08;;;4.90;99.90;;;;;;5011364;28;20054;-39
2022/03/16 00:18:19;;;;;;;49.50;29.15;;;4.90;99.90;;;;;;5014150;28;20064;-39
2022/03/16 00:20:46;;;;;;;59.83;33.80;;;4.90;99.90;;;;;;5012588;28;20378;-39
2022/03/16 00:23:13;;;;;;;48.20;27.17;;;4.80;99.90;;;;;;5013858;28;20050;-39
2022/03/16 00:25:40;;;;;;;66.55;35.58;;;4.80;99.90;;;;;;5012855;28;20371;-39
2022/03/16 00:28:06;;;;;;;51.10;29.23;;;4.70;99.90;;;;;;5011199;28;20033;-40
2022/03/16 00:30:33;;;;;;;50.03;29.55;;;4.70;99.90;;;;;;5013169;28;20470;-40
2022/03/16 00:33:01;;;;;;;53.25;30.02;;;4.70;99.90;;;;;;5013403;28;20397;-39
2022/03/16 00:35:28;;;;;;;51.13;29.98;;;4.70;99.90;;;;;;5011777;28;20042;-39
2022/03/16 00:37:55;;;;;;;51.53;30.40;;;4.70;99.90;;;;;;5013934;28;20393;-39
2022/03/16 00:40:22;;;;;;;57.55;32.85;;;4.60;99.90;;;;;;5012222;28;20451;-39
2022/03/16 00:42:48;;;;;;;50.95;31.10;;;4.60;99.90;;;;;;5012850;28;20121;-39
2022/03/16 00:45:15;;;;;;;64.60;36.05;;;4.60;99.90;;;;;;5010699;28;20048;-39
2022/03/16 00:47:42;;;;;;;51.38;31.23;;;4.60;99.90;;;;;;5013046;28;20054;-38
2022/03/16 00:50:10;;;;;;;71.13;36.60;;;4.70;99.90;;;;;;5010289;28;20063;-39
2022/03/16 00:52:37;;;;;;;62.95;35.30;;;4.60;99.90;;;;;;5013454;28;20038;-39
2022/03/16 00:55:04;;;;;;;48.38;28.85;;;4.60;99.90;;;;;;5012365;28;20045;-39
2022/03/16 00:57:31;;;;;;;55.42;30.38;;;4.60;99.90;;;;;;5013009;28;20129;-39
2022/03/16 00:59:58;;;;;;;61.58;36.00;;;4.50;99.90;;;;;;5012257;28;20556;-39
2022/03/16 01:02:25;;;;;;;56.83;31.73;;;4.50;99.90;;;;;;5011087;28;20050;-39
2022/03/16 01:04:51;;;;;;;75.50;38.85;;;4.50;99.90;;;;;;5010451;28;20390;-39
2022/03/16 01:07:19;;;;;;;73.10;38.40;;;4.50;99.90;;;;;;5013253;28;20046;-39
2022/03/16 01:09:46;;;;;;;62.75;37.00;;;4.50;99.90;;;;;;5012040;28;20537;-39
2022/03/16 01:12:13;;;;;;;66.15;36.75;;;4.50;99.90;;;;;;5012335;28;20046;-39
2022/03/16 01:14:39;;;;;;;76.05;40.47;;;4.50;99.90;;;;;;5010703;28;20046;-39
2022/03/16 01:17:06;;;;;;;71.80;37.90;;;4.50;99.90;;;;;;5012149;28;20056;-40
2022/03/16 01:19:34;;;;;;;74.97;40.92;;;4.50;99.90;;;;;;5010702;28;20049;-40
2022/03/16 01:22:01;;;;;;;78.55;41.83;;;4.60;99.90;;;;;;5006074;28;20148;-39
2022/03/16 01:24:29;;;;;;;90.20;45.05;;;4.60;99.90;;;;;;5010935;28;20052;-39
2022/03/16 01:26:56;;;;;;;80.25;42.85;;;4.60;99.90;;;;;;5003333;28;20053;-39
2022/03/16 01:29:24;;;;;;;79.78;42.20;;;4.60;99.90;;;;;;5011879;28;20052;-39
2022/03/16 01:31:51;;;;;;;86.38;43.05;;;4.60;99.90;;;;;;5011079;28;20046;-40
2022/03/16 01:34:18;;;;;;;91.63;45.22;;;4.60;99.90;;;;;;5010911;28;20057;-40
2022/03/16 01:36:44;;;;;;;84.45;42.38;;;4.60;99.90;;;;;;5011571;28;20490;-40
2022/03/16 01:39:11;;;;;;;84.03;41.70;;;4.60;99.90;;;;;;5011184;28;20037;-39
2022/03/16 01:41:39;;;;;;;81.00;42.28;;;4.60;99.90;;;;;;5003893;28;20049;-39
2022/03/16 01:44:06;;;;;;;86.00;44.78;;;4.60;99.90;;;;;;5007379;28;20052;-39
2022/03/16 01:46:32;;;;;;;59.08;33.25;;;4.60;99.90;;;;;;5012990;28;20132;-39
2022/03/16 01:48:59;;;;;;;82.60;41.65;;;4.60;99.90;;;;;;5010639;28;20385;-40
2022/03/16 01:51:26;;;;;;;90.65;44.67;;;4.60;99.90;;;;;;5005884;28;20050;-40
2022/03/16 01:53:53;;;;;;;77.20;41.75;;;4.60;99.90;;;;;;5011569;28;20597;-39
2022/03/16 01:56:20;;;;;;;71.57;39.22;;;4.60;99.90;;;;;;5011083;28;20048;-39
2022/03/16 01:58:48;;;;;;;55.63;32.35;;;4.70;99.90;;;;;;5011440;28;20100;-39
2022/03/16 02:01:15;;;;;;;78.60;39.92;;;4.60;99.90;;;;;;5010449;28;20136;-40
2022/03/16 02:03:42;;;;;;;69.13;37.70;;;4.60;99.90;;;;;;5010553;28;20050;-40
2022/03/16 02:06:09;;;;;;;60.35;35.28;;;4.60;99.90;;;;;;5011638;28;20124;-39
2022/03/16 02:08:36;;;;;;;81.85;41.40;;;4.50;99.90;;;;;;5011735;28;20050;-39
2022/03/16 02:11:03;;;;;;;67.07;36.92;;;4.50;99.90;;;;;;5009875;28;20051;-39
2022/03/16 02:13:29;;;;;;;65.90;37.65;;;4.50;99.90;;;;;;5011534;28;20038;-39
2022/03/16 02:15:57;;;;;;;75.60;40.13;;;4.50;99.90;;;;;;5011564;28;20048;-39
2022/03/16 02:18:24;;;;;;;73.95;39.25;;;4.40;99.90;;;;;;5011386;28;20050;-40
2022/03/16 02:20:51;;;;;;;73.20;37.20;;;4.40;99.90;;;;;;5010527;28;20067;-39
2022/03/16 02:23:19;;;;;;;51.63;30.48;;;4.40;99.90;;;;;;5010163;28;20451;-39
2022/03/16 02:25:50;;;;;;;53.80;31.73;;;4.40;99.90;;;;;;5010494;28;20053;-39
2022/03/16 02:28:17;;;;;;;63.93;36.00;;;4.40;99.90;;;;;;5010132;28;20052;-39
2022/03/16 02:30:43;;;;;;;69.47;39.17;;;4.30;99.90;;;;;;5011888;28;20385;-39
2022/03/16 02:33:10;;;;;;;47.75;28.70;;;4.30;99.90;;;;;;5009940;28;20053;-40
2022/03/16 02:35:37;;;;;;;49.88;29.80;;;4.30;99.90;;;;;;5012190;28;20385;-40
2022/03/16 02:38:04;;;;;;;50.35;30.33;;;4.30;99.90;;;;;;5011532;28;20038;-40
2022/03/16 02:40:32;;;;;;;47.05;28.88;;;4.20;99.90;;;;;;5011290;28;20046;-40
2022/03/16 02:42:59;;;;;;;51.20;27.48;;;4.20;99.90;;;;;;5012335;28;20050;-40
2022/03/16 02:45:26;;;;;;;42.50;25.98;;;4.20;99.90;;;;;;5010858;28;20053;-40
2022/03/16 02:47:53;;;;;;;42.33;26.60;;;4.10;99.90;;;;;;5011025;28;20046;-40
2022/03/16 02:50:19;;;;;;;43.28;27.52;;;4.10;99.90;;;;;;5010397;28;20383;-40
2022/03/16 02:52:47;;;;;;;42.17;26.60;;;4.00;99.90;;;;;;5006081;28;20048;-39
2022/03/16 02:55:14;;;;;;;51.28;30.80;;;4.00;99.90;;;;;;5011492;28;20046;-41
2022/03/16 02:57:42;;;;;;;50.65;30.42;;;4.00;99.90;;;;;;5011464;28;20048;-39
2022/03/16 03:00:10;;;;;;;45.08;27.17;;;4.00;99.90;;;;;;5008978;28;20053;-39
2022/03/16 03:02:37;;;;;;;54.45;30.77;;;4.00;99.90;;;;;;5010384;28;20081;-39
2022/03/16 03:05:04;;;;;;;50.10;29.85;;;3.90;99.90;;;;;;5005673;28;20096;-39
2022/03/16 03:07:31;;;;;;;51.45;29.45;;;3.90;99.90;;;;;;5010547;28;20052;-39
2022/03/16 03:09:57;;;;;;;47.45;28.55;;;3.90;99.90;;;;;;5010307;28;20117;-39
2022/03/16 03:12:24;;;;;;;57.47;30.67;;;3.80;99.90;;;;;;5012259;28;20049;-39
2022/03/16 03:14:52;;;;;;;43.20;26.10;;;3.80;99.90;;;;;;5015648;28;20041;-39
2022/03/16 03:17:19;;;;;;;44.10;27.13;;;3.80;99.90;;;;;;5013271;28;20060;-40
2022/03/16 03:19:48;;;;;;;45.30;25.90;;;3.70;99.90;;;;;;5009637;28;20065;-40
2022/03/16 03:22:14;;;;;;;44.42;25.67;;;3.70;99.90;;;;;;5013808;28;20052;-39
2022/03/16 03:24:44;;;;;;;47.13;27.23;;;3.70;99.90;;;;;;5015037;28;20052;-40
2022/03/16 03:27:10;;;;;;;46.63;25.67;;;3.70;99.90;;;;;;5014637;28;20129;-40
2022/03/16 03:29:37;;;;;;;43.17;24.75;;;3.70;99.90;;;;;;5014106;28;20042;-39
2022/03/16 03:32:06;;;;;;;44.83;24.23;;;3.60;99.90;;;;;;5014268;28;20385;-40
2022/03/16 03:34:33;;;;;;;35.65;22.77;;;3.60;99.90;;;;;;5013525;28;20389;-39
2022/03/16 03:37:00;;;;;;;46.88;26.13;;;3.60;99.90;;;;;;5012821;28;20050;-40
2022/03/16 03:39:27;;;;;;;42.13;25.58;;;3.50;99.90;;;;;;5014240;28;20077;-40
2022/03/16 03:41:53;;;;;;;38.90;21.80;;;3.40;99.90;;;;;;5014334;28;20048;-40
2022/03/16 03:44:20;;;;;;;34.47;21.58;;;3.40;99.90;;;;;;5006130;28;20397;-40
2022/03/16 03:46:47;;;;;;;28.13;19.70;;;3.40;99.90;;;;;;5014037;28;20042;-39
2022/03/16 03:49:15;;;;;;;28.05;17.70;;;3.40;99.90;;;;;;5009680;28;20050;-39
2022/03/16 03:51:41;;;;;;;28.45;17.02;;;3.30;99.90;;;;;;5014293;28;20042;-39
2022/03/16 03:54:08;;;;;;;24.67;17.73;;;3.30;99.90;;;;;;5014368;28;20049;-39
2022/03/16 03:56:35;;;;;;;28.73;18.65;;;3.30;99.90;;;;;;5013113;28;20046;-40
2022/03/16 03:59:01;;;;;;;27.90;18.08;;;3.30;99.90;;;;;;5013741;28;20052;-39
2022/03/16 04:01:28;;;;;;;31.65;19.27;;;3.30;99.90;;;;;;5011248;28;20053;-39
2022/03/16 04:03:55;;;;;;;29.90;18.98;;;3.30;99.90;;;;;;5012684;28;20052;-39
2022/03/16 04:06:23;;;;;;;32.40;19.73;;;3.30;99.90;;;;;;5014285;28;20393;-39
2022/03/16 04:08:49;;;;;;;32.72;20.52;;;3.30;99.90;;;;;;5013925;28;20045;-39
2022/03/16 04:11:16;;;;;;;27.13;18.42;;;3.20;99.90;;;;;;5013117;28;20107;-40
2022/03/16 04:13:43;;;;;;;37.92;21.40;;;3.20;99.90;;;;;;5014263;28;20052;-39
2022/03/16 04:16:09;;;;;;;37.58;22.73;;;3.20;99.90;;;;;;5013644;28;20377;-39
2022/03/16 04:18:36;;;;;;;36.78;21.17;;;3.20;99.90;;;;;;5009742;28;20050;-40
2022/03/16 04:21:03;;;;;;;34.15;20.88;;;3.20;99.90;;;;;;5011627;28;20064;-39
2022/03/16 04:23:31;;;;;;;32.33;20.73;;;3.20;99.90;;;;;;5012407;28;20103;-39
2022/03/16 04:25:58;;;;;;;31.85;19.58;;;3.10;99.90;;;;;;5012063;28;20470;-39
2022/03/16 04:28:24;;;;;;;31.98;20.33;;;3.10;99.90;;;;;;5011601;28;20048;-39
2022/03/16 04:30:51;;;;;;;45.40;26.52;;;3.10;99.90;;;;;;5013526;28;20125;-39
2022/03/16 04:33:18;;;;;;;32.80;20.52;;;3.10;99.90;;;;;;5012174;28;20037;-39
2022/03/16 04:35:44;;;;;;;32.92;20.48;;;3.10;99.90;;;;;;5013738;28;20053;-39
2022/03/16 04:38:11;;;;;;;32.85;21.65;;;3.10;99.90;;;;;;5004512;28;20046;-39
2022/03/16 04:40:39;;;;;;;37.60;23.13;;;3.10;99.90;;;;;;5031779;28;20041;-39
2022/03/16 04:43:06;;;;;;;33.53;20.98;;;3.10;99.90;;;;;;5010637;28;20076;-39
2022/03/16 04:45:32;;;;;;;35.78;22.38;;;3.00;99.90;;;;;;5012666;28;20084;-39
2022/03/16 04:47:59;;;;;;;36.60;22.75;;;3.00;99.90;;;;;;5013156;28;20038;-38
2022/03/16 04:50:26;;;;;;;42.25;25.92;;;3.00;99.90;;;;;;5007582;28;20145;-39
2022/03/16 04:52:52;;;;;;;33.90;21.23;;;3.00;99.90;;;;;;5012764;28;20052;-39
2022/03/16 04:55:19;;;;;;;36.78;23.35;;;3.00;99.90;;;;;;5013646;28;20052;-39
2022/03/16 04:57:48;;;;;;;41.45;23.65;;;3.00;99.90;;;;;;5012648;28;20046;-39
2022/03/16 05:00:15;;;;;;;40.55;25.88;;;3.00;99.90;;;;;;5010331;28;20477;-39
2022/03/16 05:02:42;;;;;;;46.95;25.77;;;2.90;99.90;;;;;;5012222;28;20377;-39
2022/03/16 05:05:10;;;;;;;44.80;27.08;;;2.90;99.90;;;;;;5010230;28;20042;-39
2022/03/16 05:07:37;;;;;;;31.63;20.45;;;2.90;99.90;;;;;;5003218;28;20058;-39
2022/03/16 05:10:04;;;;;;;27.90;17.13;;;2.80;99.90;;;;;;5012017;28;20048;-39
2022/03/16 05:12:37;;;;;;;33.95;20.25;;;2.80;99.90;;;;;;5012465;28;20062;-39
2022/03/16 05:15:07;;;;;;;31.02;19.75;;;2.80;99.90;;;;;;5011301;28;20050;-39
2022/03/16 05:17:33;;;;;;;29.63;19.13;;;2.80;99.90;;;;;;5011101;28;20038;-39
2022/03/16 05:20:00;;;;;;;38.65;22.80;;;2.80;99.90;;;;;;5011231;28;20120;-39
2022/03/16 05:22:27;;;;;;;36.20;21.90;;;2.80;99.90;;;;;;5010621;28;20489;-39
2022/03/16 05:24:53;;;;;;;37.83;24.30;;;2.80;99.90;;;;;;5011767;28;20042;-39
2022/03/16 05:27:20;;;;;;;37.08;23.63;;;2.70;99.90;;;;;;5009132;28;20045;-39
2022/03/16 05:29:47;;;;;;;42.95;25.60;;;2.70;99.90;;;;;;5006678;28;20038;-39
2022/03/16 05:32:15;;;;;;;41.35;26.17;;;2.70;99.90;;;;;;5002675;28;20394;-39
2022/03/16 05:34:42;;;;;;;52.65;30.80;;;2.70;99.90;;;;;;5002057;28;20042;-40
2022/03/16 05:37:08;;;;;;;58.15;32.35;;;2.80;99.90;;;;;;5008118;28;20493;-39
2022/03/16 05:39:35;;;;;;;57.33;34.25;;;2.70;99.90;;;;;;5010463;28;20132;-39
2022/03/16 05:42:02;;;;;;;61.63;37.35;;;2.80;99.90;;;;;;5010634;28;20049;-39
2022/03/16 05:44:28;;;;;;;60.60;36.13;;;2.80;99.90;;;;;;5009530;28;20058;-39
2022/03/16 05:46:57;;;;;;;60.45;34.20;;;2.90;99.90;;;;;;5009760;28;20056;-39
2022/03/16 05:49:28;;;;;;;59.30;32.53;;;2.90;99.90;;;;;;5007318;28;20053;-39
2022/03/16 05:51:54;;;;;;;54.80;33.47;;;2.90;99.90;;;;;;5011808;28;20041;-39
2022/03/16 05:54:21;;;;;;;50.75;31.90;;;3.00;99.90;;;;;;5008407;28;20044;-39
2022/03/16 05:56:48;;;;;;;51.80;33.15;;;3.00;99.90;;;;;;5002259;28;20048;-39
2022/03/16 05:59:14;;;;;;;48.92;30.45;;;3.00;99.90;;;;;;5012628;28;20462;-39
2022/03/16 06:01:41;;;;;;;61.17;36.58;;;3.10;99.90;;;;;;5010587;28;20124;-39
2022/03/16 06:04:08;;;;;;;59.08;35.05;;;3.10;99.90;;;;;;5008238;28;20045;-39
2022/03/16 06:06:36;;;;;;;55.13;33.80;;;3.10;99.90;;;;;;5008403;28;20057;-39
2022/03/16 06:09:03;;;;;;;61.42;35.65;;;3.10;99.90;;;;;;5008836;28;20370;-38
2022/03/16 06:11:30;;;;;;;59.97;35.40;;;3.20;99.90;;;;;;5009339;28;20058;-39
2022/03/16 06:13:56;;;;;;;57.88;35.97;;;3.20;99.90;;;;;;5006885;28;20046;-39
2022/03/16 06:16:23;;;;;;;71.20;39.17;;;3.20;99.90;;;;;;5001900;28;20056;-39
2022/03/16 06:18:50;;;;;;;65.47;39.03;;;3.30;99.90;;;;;;4991850;28;20700;-39
2022/03/16 06:21:16;;;;;;;66.97;38.42;;;3.30;99.90;;;;;;5006388;28;20058;-38
2022/03/16 06:23:44;;;;;;;63.65;37.15;;;3.40;99.90;;;;;;5011104;28;20045;-39
2022/03/16 06:26:11;;;;;;;68.47;40.25;;;3.40;99.90;;;;;;5011307;28;20044;-38
2022/03/16 06:28:38;;;;;;;76.15;41.10;;;3.50;99.90;;;;;;5007029;28;20133;-38
2022/03/16 06:31:04;;;;;;;76.63;43.05;;;3.50;99.90;;;;;;5005778;28;20375;-38
2022/03/16 06:33:31;;;;;;;78.70;42.63;;;3.60;99.90;;;;;;4999962;28;20046;-39
2022/03/16 06:35:58;;;;;;;73.70;40.45;;;3.70;99.90;;;;;;5011191;28;20496;-38
2022/03/16 06:38:25;;;;;;;75.25;41.35;;;3.70;99.90;;;;;;5010226;28;20065;-38
2022/03/16 06:40:53;;;;;;;71.95;42.00;;;3.70;99.90;;;;;;5009335;28;20125;-38
2022/03/16 06:43:21;;;;;;;75.78;42.20;;;3.80;99.90;;;;;;5009989;28;20054;-38
2022/03/16 06:45:47;;;;;;;73.47;43.35;;;3.90;99.90;;;;;;5008892;28;20092;-38
2022/03/16 06:48:14;;;;;;;78.78;44.05;;;3.90;99.90;;;;;;5012244;28;20049;-38
2022/03/16 06:50:41;;;;;;;79.75;42.55;;;4.00;99.90;;;;;;5014227;28;20132;-38
2022/03/16 06:53:08;;;;;;;76.78;42.10;;;4.00;99.90;;;;;;5015201;28;20052;-38
2022/03/16 06:55:34;;;;;;;61.80;39.00;;;4.00;99.90;;;;;;5014692;28;20370;-38
2022/03/16 06:58:03;;;;;;;71.70;42.05;;;4.10;99.90;;;;;;5012939;28;20128;-39
2022/03/16 07:00:29;;;;;;;73.03;43.95;;;4.10;99.90;;;;;;5012796;28;20064;-38
2022/03/16 07:02:57;;;;;;;67.97;41.42;;;4.10;99.90;;;;;;5013016;28;20493;-38
2022/03/16 07:05:26;;;;;;;72.82;42.08;;;4.20;99.90;;;;;;5007271;28;20432;-38
2022/03/16 07:07:52;;;;;;;76.35;43.95;;;4.20;99.90;;;;;;5012337;28;20057;-38
2022/03/16 07:10:20;;;;;;;81.20;43.90;;;4.30;99.90;;;;;;5014444;28;20045;-38
2022/03/16 07:12:47;;;;;;;69.10;41.92;;;4.30;99.90;;;;;;5014765;28;20045;-40
2022/03/16 07:15:15;;;;;;;70.85;42.85;;;4.40;99.90;;;;;;5012840;28;20046;-39
2022/03/16 07:17:41;;;;;;;77.03;44.30;;;4.50;99.90;;;;;;5012575;28;20133;-38
2022/03/16 07:20:09;;;;;;;71.40;43.55;;;4.50;99.90;;;;;;5014767;28;20038;-39
2022/03/16 07:22:36;;;;;;;72.63;44.25;;;4.60;99.90;;;;;;5014102;28;20046;-38
2022/03/16 07:25:03;;;;;;;78.97;43.72;;;4.70;99.90;;;;;;5014029;28;20052;-38
2022/03/16 07:27:29;;;;;;;73.28;44.42;;;4.70;99.90;;;;;;5011273;28;20064;-39
2022/03/16 07:29:56;;;;;;;72.18;45.03;;;4.80;99.90;;;;;;5010810;28;20056;-39
2022/03/16 07:32:24;;;;;;;75.10;44.88;;;4.90;99.90;;;;;;5009475;28;20048;-39
2022/03/16 07:34:51;;;;;;;67.80;42.95;;;5.00;99.90;;;;;;5009934;28;20042;-38
2022/03/16 07:37:19;;;;;;;72.75;44.72;;;5.20;99.90;;;;;;5012399;28;20048;-39
2022/03/16 07:39:45;;;;;;;67.55;43.83;;;5.30;99.90;;;;;;5014533;28;20049;-39
2022/03/16 07:42:12;;;;;;;75.47;44.30;;;5.40;99.90;;;;;;5010248;28;20057;-38
2022/03/16 07:44:39;;;;;;;68.15;41.88;;;5.50;99.90;;;;;;5027913;28;20532;-38
2022/03/16 07:47:07;;;;;;;66.53;40.58;;;5.60;99.90;;;;;;5013770;28;20053;-38
2022/03/16 07:49:35;;;;;;;67.45;42.00;;;5.70;99.90;;;;;;5014523;28;20038;-38
2022/03/16 07:52:01;;;;;;;58.58;39.78;;;5.80;99.90;;;;;;5011346;28;20044;-39
2022/03/16 07:54:28;;;;;;;57.53;37.35;;;5.90;99.90;;;;;;5013166;28;20052;-39
2022/03/16 07:56:56;;;;;;;60.78;38.95;;;5.90;99.90;;;;;;5006581;28;20385;-38
2022/03/16 07:59:23;;;;;;;56.28;36.67;;;6.10;99.90;;;;;;5005988;28;20053;-38
2022/03/16 08:01:49;;;;;;;57.63;36.45;;;6.20;99.90;;;;;;5013520;28;20041;-39
2022/03/16 08:04:16;;;;;;;55.70;34.70;;;6.30;99.90;;;;;;5011961;28;20133;-39
2022/03/16 08:06:44;;;;;;;49.38;33.95;;;6.40;99.90;;;;;;5012694;28;20124;-39
2022/03/16 08:09:11;;;;;;;51.55;34.45;;;6.50;99.90;;;;;;5013619;28;20448;-38
2022/03/16 08:11:37;;;;;;;49.40;32.33;;;6.60;99.90;;;;;;5012487;28;20048;-39
2022/03/16 08:14:04;;;;;;;49.92;32.88;;;6.70;99.90;;;;;;5011072;28;20173;-37
2022/03/16 08:16:31;;;;;;;51.40;33.03;;;6.80;99.90;;;;;;5013831;28;20054;-38
2022/03/16 08:18:58;;;;;;;49.97;31.10;;;6.90;99.90;;;;;;5011548;28;20130;-37
2022/03/16 08:21:24;;;;;;;46.55;31.30;;;7.00;99.90;;;;;;5011973;28;20053;-38
2022/03/16 08:23:54;;;;;;;45.38;30.77;;;7.10;99.90;;;;;;5011494;28;20115;-38
2022/03/16 08:26:21;;;;;;;48.80;31.25;;;7.30;99.90;;;;;;5012578;28;20054;-38
2022/03/16 08:28:47;;;;;;;49.47;32.00;;;7.40;99.90;;;;;;5010966;28;20056;-39
2022/03/16 08:31:15;;;;;;;48.92;30.13;;;7.60;99.90;;;;;;5011071;28;20502;-38
2022/03/16 08:33:41;;;;;;;48.33;30.52;;;7.70;99.90;;;;;;5011829;28;20049;-38
2022/03/16 08:36:08;;;;;;;42.63;28.15;;;7.90;99.90;;;;;;5012640;28;20042;-39
2022/03/16 08:38:36;;;;;;;48.42;29.90;;;8.10;99.90;;;;;;5005906;28;20081;-38
2022/03/16 08:41:05;;;;;;;42.85;28.27;;;8.30;99.90;;;;;;5011580;28;20050;-38
2022/03/16 08:43:32;;;;;;;43.65;28.88;;;8.40;99.90;;;;;;5012644;28;20502;-38
2022/03/16 08:45:59;;;;;;;50.17;29.42;;;8.60;99.90;;;;;;5012256;28;20046;-38
2022/03/16 08:48:26;;;;;;;46.42;28.10;;;8.80;99.90;;;;;;5010488;28;20042;-38
2022/03/16 08:50:53;;;;;;;44.85;29.55;;;8.90;99.90;;;;;;5010865;28;20508;-38
2022/03/16 08:53:19;;;;;;;51.40;30.60;;;9.10;99.90;;;;;;5011112;28;20038;-38
2022/03/16 08:55:46;;;;;;;44.45;29.20;;;9.20;99.90;;;;;;5011841;28;20085;-39
2022/03/16 08:58:14;;;;;;;45.22;29.00;;;9.30;99.90;;;;;;5011105;28;20046;-39
2022/03/16 09:00:42;;;;;;;48.22;29.75;;;9.40;99.90;;;;;;5011292;28;20038;-39
2022/03/16 09:03:08;;;;;;;46.38;28.15;;;9.50;99.90;;;;;;5005200;28;20359;-39
2022/03/16 09:05:35;;;;;;;46.63;29.23;;;9.60;99.90;;;;;;5009731;28;20073;-39
2022/03/16 09:08:03;;;;;;;45.13;27.48;;;9.80;99.90;;;;;;5012165;28;20117;-39
2022/03/16 09:10:29;;;;;;;42.83;27.98;;;9.90;99.90;;;;;;5010333;28;20045;-39
2022/03/16 09:12:56;;;;;;;48.35;29.05;;;10.00;99.90;;;;;;5012297;28;20050;-38
2022/03/16 09:15:24;;;;;;;41.88;26.88;;;10.20;99.90;;;;;;5009735;28;20508;-38
2022/03/16 09:17:52;;;;;;;39.47;26.13;;;10.30;99.90;;;;;;5012643;28;20516;-38
2022/03/16 09:20:19;;;;;;;42.05;25.48;;;10.40;99.90;;;;;;5009354;28;20057;-39
2022/03/16 09:22:46;;;;;;;42.78;25.40;;;10.60;99.90;;;;;;5010770;28;20046;-39
2022/03/16 09:25:12;;;;;;;37.95;23.90;;;10.80;99.90;;;;;;5005943;28;20389;-39
2022/03/16 09:27:39;;;;;;;38.55;23.15;;;10.80;99.90;;;;;;5012007;28;20129;-38
2022/03/16 09:30:07;;;;;;;35.47;21.67;;;10.90;99.90;;;;;;5011452;28;20435;-39
2022/03/16 09:32:35;;;;;;;37.13;22.55;;;11.00;99.90;;;;;;5005812;28;20081;-39
2022/03/16 09:35:02;;;;;;;33.90;21.55;;;11.10;99.90;;;;;;5006719;28;20058;-39
2022/03/16 09:37:28;;;;;;;29.63;19.45;;;11.20;99.90;;;;;;5005655;28;20049;-39
2022/03/16 09:39:55;;;;;;;37.30;20.55;;;11.30;99.90;;;;;;5003923;28;20045;-39
2022/03/16 09:42:22;;;;;;;29.92;19.95;;;11.40;99.90;;;;;;5001937;28;20128;-38
2022/03/16 09:44:50;;;;;;;27.63;18.40;;;11.50;99.90;;;;;;5008337;28;20121;-39
2022/03/16 09:47:18;;;;;;;29.73;18.05;;;11.60;99.90;;;;;;5009879;28;20163;-38
2022/03/16 09:49:46;;;;;;;26.98;17.33;;;11.70;99.90;;;;;;5010125;28;20052;-40
2022/03/16 09:52:13;;;;;;;32.45;18.33;;;11.80;99.70;;;;;;5012154;28;20421;-39
2022/03/16 09:54:40;;;;;;;27.33;17.60;;;11.80;99.40;;;;;;5010866;28;20053;-39
2022/03/16 09:57:06;;;;;;;29.90;17.65;;;11.80;99.60;;;;;;5011540;28;20052;-38
2022/03/16 09:59:33;;;;;;;26.50;17.30;;;12.00;99.20;;;;;;5007713;28;20396;-38
2022/03/16 10:02:06;;;;;;;28.98;16.52;;;12.10;98.70;;;;;;5011877;28;20133;-40
2022/03/16 10:04:35;;;;;;;30.75;15.93;;;12.30;96.70;;;;;;4997630;28;20053;-39
2022/03/16 10:07:04;;;;;;;28.15;16.05;;;12.40;97.10;;;;;;5003668;28;20426;-39
2022/03/16 10:15:02;;;;;;;24.45;14.65;;;12.70;95.50;;;;;;5010568;28;20474;-40
2022/03/16 10:17:44;;;;;;;26.10;16.70;;;12.60;95.20;;;;;;5009288;28;20046;-39
2022/03/16 10:20:12;;;;;;;25.23;15.73;;;12.70;95.10;;;;;;5009996;28;20045;-40
2022/03/16 10:22:41;;;;;;;25.63;16.67;;;12.70;94.90;;;;;;5010395;28;20049;-38
2022/03/16 10:25:08;;;;;;;25.48;16.58;;;12.70;94.70;;;;;;5011854;28;20393;-39
2022/03/16 10:27:37;;;;;;;27.77;15.90;;;12.70;94.10;;;;;;5007810;28;20205;-40
2022/03/16 10:30:05;;;;;;;25.20;16.25;;;12.70;94.10;;;;;;5003672;28;20045;-40
2022/03/16 10:32:32;;;;;;;28.02;16.27;;;12.70;93.90;;;;;;5011325;28;20431;-39
2022/03/16 10:35:04;;;;;;;26.63;16.15;;;12.70;93.70;;;;;;5010646;28;20053;-40
2022/03/16 10:37:31;;;;;;;23.13;15.82;;;12.70;93.50;;;;;;5009652;28;20052;-40
2022/03/16 10:39:59;;;;;;;28.80;16.48;;;12.70;92.90;;;;;;5010275;28;20046;-40
2022/03/16 10:48:11;;;;;;;28.48;16.40;;;12.90;90.40;;;;;;5007823;28;19972;-38
2022/03/16 10:50:39;;;;;;;26.08;15.73;;;13.00;92.60;;;;;;5008280;28;20052;-41
2022/03/16 10:53:06;;;;;;;26.80;16.25;;;13.10;92.30;;;;;;5009824;28;20513;-39
2022/03/16 10:55:35;;;;;;;25.20;16.00;;;13.20;91.60;;;;;;5010330;28;20056;-39
2022/03/16 10:58:02;;;;;;;28.90;16.35;;;13.30;91.20;;;;;;5011337;28;20086;-38
2022/03/16 11:00:29;;;;;;;26.52;15.48;;;13.40;91.40;;;;;;5010296;28;20049;-39
2022/03/16 11:02:56;;;;;;;25.08;15.57;;;13.50;90.40;;;;;;5010955;28;20056;-40
2022/03/16 11:05:23;;;;;;;22.92;15.85;;;13.60;90.00;;;;;;5008453;28;20378;-40
2022/03/16 11:07:50;;;;;;;20.88;13.68;;;13.70;90.00;;;;;;5008586;28;20065;-40
2022/03/16 11:10:17;;;;;;;21.02;13.80;;;13.80;87.60;;;;;;5010217;28;20056;-41
2022/03/16 11:15:30;;;;;;;18.90;11.93;;;14.00;86.60;;;;;;5012051;28;20148;-39
2022/03/16 11:17:57;;;;;;;19.50;12.65;;;14.20;82.80;;;;;;5011435;28;20078;-40
2022/03/16 11:20:24;;;;;;;22.42;12.30;;;14.20;82.40;;;;;;5012142;28;20385;-40
2022/03/16 11:25:47;;;;;;;18.85;12.05;;;14.30;79.10;;;;;;5010102;28;20050;-40
2022/03/16 11:28:15;;;;;;;19.42;12.15;;;14.50;76.90;;;;;;5011073;28;20136;-40
2022/03/16 11:30:42;;;;;;;22.90;12.63;;;14.60;78.40;;;;;;5010518;28;20347;-40
2022/03/16 11:33:11;;;;;;;17.52;12.07;;;14.60;77.20;;;;;;5011738;28;20446;-40
2022/03/16 11:35:44;;;;;;;21.30;12.80;;;14.60;76.10;;;;;;5014485;28;20033;-39
2022/03/16 11:38:13;;;;;;;18.13;13.07;;;14.70;75.50;;;;;;5012973;28;20068;-40
2022/03/16 11:40:41;;;;;;;22.10;14.30;;;14.70;75.70;;;;;;5015143;28;20042;-40
2022/03/16 11:43:16;;;;;;;19.33;11.82;;;14.80;74.60;;;;;;5013927;28;20052;-39
2022/03/16 11:45:44;;;;;;;19.83;12.43;;;14.80;71.10;;;;;;5014807;28;20045;-42
2022/03/16 11:48:40;;;;;;;21.92;14.05;;;14.70;73.20;;;;;;5013431;28;20448;-41
2022/03/16 11:51:26;;;;;;;20.45;12.95;;;14.70;69.90;;;;;;5014675;28;20124;-42
2022/03/16 11:54:11;;;;;;;19.08;13.23;;;14.80;71.60;;;;;;5014841;28;20042;-41
2022/03/16 11:56:57;;;;;;;22.83;14.35;;;14.90;70.40;;;;;;5013511;28;20080;-41
2022/03/16 11:59:45;;;;;;;20.85;14.25;;;15.00;71.90;;;;;;5014474;28;20044;-40
2022/03/16 12:02:21;;;;;;;21.67;14.13;;;15.00;70.90;;;;;;5007484;28;20062;-41
2022/03/16 12:04:49;;;;;;;21.25;14.75;;;15.10;73.00;;;;;;5010938;28;20053;-41
2022/03/16 12:07:17;;;;;;;23.27;14.38;;;15.20;72.60;;;;;;5011505;28;20092;-41
2022/03/16 12:09:45;;;;;;;24.40;14.55;;;15.20;71.10;;;;;;5014466;28;20092;-40
2022/03/16 12:15:02;;;;;;;23.30;15.35;;;15.20;70.60;;;;;;5013458;28;20081;-41
2022/03/16 12:17:29;;;;;;;25.15;15.63;;;15.30;72.50;;;;;;5013905;28;20085;-41
2022/03/16 12:20:10;;;;;;;22.42;15.25;;;15.50;71.90;;;;;;5014539;28;20081;-40
2022/03/16 12:22:43;;;;;;;22.77;15.52;;;15.60;69.80;;;;;;5010053;28;20057;-40
2022/03/16 12:25:32;;;;;;;28.38;15.85;;;15.60;70.20;;;;;;5009461;28;20394;-40
2022/03/16 12:30:46;;;;;;;24.40;15.32;;;15.60;70.30;;;;;;5013525;28;20069;-40
2022/03/16 12:33:15;;;;;;;22.75;15.73;;;15.80;70.90;;;;;;5013432;28;20060;-40
2022/03/16 12:35:41;;;;;;;23.75;15.18;;;15.90;70.10;;;;;;5009714;28;20084;-40
2022/03/16 12:38:09;;;;;;;24.80;14.15;;;15.90;67.90;;;;;;5014236;28;20470;-41
2022/03/16 12:42:30;;;;;;;20.70;13.65;;;15.80;67.60;;;;;;5012425;28;20052;-41
2022/03/16 12:43:23;;;;;;;19.05;13.23;;;15.80;67.10;;;;;;5013696;28;20042;-40
2022/03/16 12:45:51;;;;;;;20.65;14.18;;;15.80;67.30;;;;;;5008750;28;20091;-41
2022/03/16 12:48:19;;;;;;;20.25;13.88;;;15.90;67.20;;;;;;5013857;28;20052;-41
2022/03/16 12:50:47;;;;;;;25.00;15.35;;;16.00;67.30;;;;;;5013820;28;20444;-41
2022/03/16 12:53:15;;;;;;;23.33;15.27;;;16.00;66.70;;;;;;5012536;28;20714;-41
2022/03/16 12:55:55;;;;;;;23.05;14.75;;;16.10;66.30;;;;;;5000825;28;20042;-40
2022/03/16 12:58:24;;;;;;;22.13;14.25;;;16.10;65.70;;;;;;5013615;28;20076;-41